.
WxDataArchive / Data Records for 2006-04-14
2006-04-13 April 2006 2006-04-15

Data Records for Friday, 14 April 2006

Time	Temp	Chill	HIndex	Humid	Dewpt	 Wind 	HiWind	WindDir	Rain 	Barom 
-----	----	-----	------	-----	-----	------	------	-------	-----	----- 
00:00	62.4	62.4	62.4	48	42.4	1	4	112	0.00	29.838 
00:05	62.4	62.4	62.4	49	43.0	1	3	112	0.00	29.838 
00:10	62.3	62.3	62.3	49	42.9	1	2	112	0.00	29.838 
00:15	62.1	62.1	62.1	49	42.7	1	2	112	0.00	29.830 
00:20	62.0	62.0	62.0	49	42.6	1	3	112	0.00	29.830 
00:25	61.8	61.8	61.8	50	43.0	0	1	112	0.00	29.830 
00:30	61.6	61.6	61.6	50	42.8	0	1	112	0.00	29.826 
00:35	61.3	61.3	61.3	51	43.0	0	2	112	0.00	29.826 
00:40	61.3	61.3	61.3	52	43.5	1	3	112	0.00	29.826 
00:45	61.2	61.2	61.2	51	42.9	2	3	112	0.00	29.813 
00:50	61.3	61.3	61.3	51	43.0	1	2	112	0.00	29.813 
00:55	61.6	61.6	61.6	50	42.8	1	2	135	0.00	29.813 
01:00	61.8	61.8	61.8	51	43.5	0	1	112	0.00	29.808 
01:05	62.0	62.0	62.0	49	42.6	1	3	112	0.00	29.808 
01:10	62.6	62.6	62.6	47	42.1	1	4	112	0.00	29.808 
01:15	63.4	63.4	63.4	46	42.3	1	3	112	0.00	29.786 
01:20	63.9	63.9	63.9	46	42.7	1	3	112	0.00	29.786 
01:25	64.3	64.3	64.3	45	42.5	2	5	112	0.00	29.786 
01:30	64.5	64.5	64.5	44	42.1	1	5	112	0.00	29.771 
01:35	64.8	64.8	64.8	45	43.0	2	4	112	0.00	29.771 
01:40	64.8	64.8	64.8	46	43.5	1	3	135	0.00	29.771 
01:45	64.7	64.7	64.7	46	43.4	1	3	135	0.00	29.758 
01:50	64.5	64.5	64.5	47	43.8	1	3	112	0.00	29.758 
01:55	64.3	64.3	64.3	49	44.7	1	4	112	0.00	29.758 
02:00	64.0	64.0	64.0	50	45.0	1	3	112	0.00	29.743 
02:05	63.5	63.5	63.5	56	47.5	0	1	112	0.00	29.743 
02:10	62.6	62.6	62.6	60	48.5	1	2	68	0.00	29.743 
02:15	61.6	61.6	61.6	65	49.7	0	1	68	0.01	29.817 
02:20	59.8	59.8	59.8	72	50.8	2	5	270	0.05	29.817 
02:25	58.7	58.7	58.7	75	50.8	1	4	158	0.01	29.817 
02:30	58.4	58.4	58.4	78	51.6	5	11	270	0.02	29.778 
02:35	58.4	58.4	58.4	84	53.6	5	11	248	0.00	29.778 
02:40	58.9	58.9	58.9	84	54.1	6	13	270	0.01	29.778 
02:45	59.8	59.8	59.8	83	54.6	6	16	248	0.00	29.728 
02:50	60.2	60.2	60.2	83	55.0	6	16	248	0.00	29.728 
02:55	60.4	60.4	60.4	83	55.2	7	21	248	0.00	29.728 
03:00	59.9	59.9	59.9	85	55.4	8	24	270	0.01	29.587 
03:05	59.9	59.9	59.9	85	55.4	10	19	270	0.01	29.587 
03:10	59.9	59.9	59.9	85	55.4	7	16	248	0.00	29.587 
03:15	59.9	59.9	59.9	85	55.4	6	12	270	0.00	29.713 
03:20	59.9	59.9	59.9	85	55.4	4	9	270	0.00	29.713 
03:25	59.9	59.9	59.9	85	55.4	4	8	270	0.00	29.713 
03:30	59.8	59.8	59.8	85	55.3	3	6	248	0.00	29.728 
03:35	59.5	59.5	59.5	85	55.0	2	5	248	0.00	29.728 
03:40	59.5	59.5	59.5	86	55.3	2	5	248	0.00	29.728 
03:45	59.2	59.2	59.2	86	55.0	2	6	68	0.00	29.699 
03:50	58.9	58.9	58.9	86	54.7	2	10	248	0.00	29.699 
03:55	58.7	58.7	58.7	87	54.8	1	7	90	0.00	29.699 
04:00	58.6	58.6	58.6	87	54.7	2	7	68	0.00	29.684 
04:05	58.4	58.4	58.4	87	54.5	2	6	90	0.00	29.684 
04:10	58.4	58.4	58.4	88	54.9	0	3	112	0.00	29.684 
04:15	58.3	58.3	58.3	87	54.4	1	3	248	0.00	29.685 
04:20	58.4	58.4	58.4	88	54.9	2	3	248	0.00	29.685 
04:25	58.4	58.4	58.4	88	54.9	1	4	248	0.00	29.685 
04:30	58.3	58.3	58.3	87	54.4	0	3	225	0.00	29.694 
04:35	58.3	58.3	58.3	88	54.8	1	2	112	0.00	29.694 
04:40	58.3	58.3	58.3	88	54.8	1	3	68	0.00	29.694 
04:45	58.3	58.3	58.3	88	54.8	0	2	90	0.00	29.681 
04:50	58.1	58.1	58.1	88	54.6	0	1	68	0.00	29.681 
04:55	57.8	57.8	57.8	88	54.3	0	1	68	0.00	29.681 
05:00	57.8	57.8	57.8	89	54.6	0	1	68	0.00	29.672 
05:05	57.8	57.8	57.8	89	54.6	0	2	68	0.00	29.672 
05:10	57.6	57.6	57.6	89	54.4	0	2	90	0.00	29.672 
05:15	57.5	57.5	57.5	89	54.3	0	3	90	0.00	29.665 
05:20	57.2	57.2	57.2	89	54.0	0	2	90	0.00	29.665 
05:25	57.0	57.0	57.0	90	54.1	1	5	90	0.00	29.665 
05:30	56.9	56.9	56.9	90	54.0	1	2	90	0.00	29.649 
05:35	56.7	56.7	56.7	90	53.8	0	2	90	0.00	29.649 
05:40	56.7	56.7	56.7	90	53.8	0	1	90	0.00	29.649 
05:45	56.6	56.6	56.6	90	53.7	0	1	90	0.00	29.652 
05:50	56.5	56.5	56.5	90	53.6	0	1	90	0.00	29.652 
05:55	56.3	56.3	56.3	91	53.7	0	1	90	0.00	29.652 
06:00	56.3	56.3	56.3	91	53.7	0	1	90	0.00	29.656 
06:05	56.0	56.0	56.0	91	53.4	0	1	90	0.00	29.656 
06:10	55.9	55.9	55.9	91	53.3	0	0	---	0.00	29.656 
06:15	55.9	55.9	55.9	92	53.6	0	1	90	0.00	29.653 
06:20	56.0	56.0	56.0	92	53.7	0	1	90	0.00	29.653 
06:25	56.2	56.2	56.2	92	53.9	0	1	90	0.00	29.653 
06:30	56.3	56.3	56.3	92	54.0	1	2	90	0.00	29.653 
06:35	56.5	56.5	56.5	92	54.2	0	2	90	0.00	29.653 
06:40	56.7	56.7	56.7	93	54.7	0	2	90	0.00	29.653 
06:45	57.2	57.2	57.2	93	55.2	0	1	90	0.00	29.658 
06:50	57.5	57.5	57.5	92	55.2	0	3	292	0.00	29.658 
06:55	57.8	57.8	57.8	92	55.5	1	4	248	0.00	29.658 
07:00	58.1	58.1	58.1	91	55.5	0	3	248	0.00	29.658 
07:05	58.3	58.3	58.3	91	55.7	1	3	248	0.00	29.658 
07:10	58.6	58.6	58.6	90	55.7	1	4	248	0.00	29.658 
07:15	58.7	58.7	58.7	89	55.5	1	2	248	0.00	29.668 
07:20	58.7	58.7	58.7	89	55.5	1	5	248	0.00	29.668 
07:25	58.7	58.7	58.7	88	55.2	1	3	248	0.00	29.668 
07:30	58.9	58.9	58.9	88	55.3	1	3	225	0.00	29.662 
07:35	58.9	58.9	58.9	88	55.3	0	2	225	0.00	29.662 
07:40	59.2	59.2	59.2	88	55.6	1	3	270	0.00	29.662 
07:45	59.3	59.3	59.3	88	55.7	0	3	270	0.00	29.673 
07:50	59.3	59.3	59.3	88	55.7	0	1	270	0.00	29.673 
07:55	59.5	59.5	59.5	88	55.9	0	2	270	0.00	29.673 
08:00	59.8	59.8	59.8	88	56.2	1	2	315	0.00	29.688 
08:05	60.1	60.1	60.1	87	56.2	0	1	315	0.00	29.688 
08:10	60.2	60.2	60.2	87	56.3	0	1	315	0.00	29.688 
08:15	60.5	60.5	60.5	86	56.3	0	2	315	0.00	29.688 
08:20	61.0	61.0	61.0	85	56.5	0	4	292	0.00	29.688 
08:25	61.5	61.5	61.5	84	56.6	0	2	248	0.00	29.688 
08:30	62.0	62.0	62.0	84	57.1	1	3	248	0.00	29.693 
08:35	62.4	62.4	62.4	83	57.2	2	4	248	0.00	29.693 
08:40	62.9	62.9	62.9	81	57.0	2	6	248	0.00	29.693 
08:45	63.2	63.2	63.2	81	57.3	3	5	248	0.00	29.688 
08:50	63.5	63.5	63.5	81	57.6	2	4	248	0.00	29.688 
08:55	63.9	63.9	63.9	80	57.6	3	5	248	0.00	29.688 
09:00	64.2	64.2	64.2	80	57.9	2	5	248	0.00	29.681 
09:05	64.7	64.7	64.7	79	58.0	2	6	248	0.00	29.681 
09:10	64.8	64.8	64.8	79	58.1	3	7	270	0.00	29.681 
09:15	65.2	65.2	65.2	79	58.5	2	4	248	0.00	29.679 
09:20	65.5	65.5	65.5	78	58.5	3	7	248	0.00	29.679 
09:25	65.8	65.8	65.8	77	58.4	4	9	248	0.00	29.679 
09:30	66.3	66.3	66.3	77	58.9	4	12	248	0.00	29.672 
09:35	66.8	66.8	66.8	77	59.3	3	10	248	0.00	29.672 
09:40	67.1	67.1	67.1	76	59.3	4	9	248	0.00	29.672 
09:45	67.4	67.4	67.4	75	59.2	4	10	248	0.00	29.671 
09:50	67.8	67.8	67.8	75	59.6	4	10	248	0.00	29.671 
09:55	68.4	68.4	68.4	74	59.8	3	6	248	0.00	29.671 
10:00	68.9	68.9	68.9	73	59.9	4	7	270	0.00	29.657 
10:05	69.4	69.4	69.4	72	60.0	4	11	248	0.00	29.657 
10:10	69.9	69.9	69.9	72	60.4	4	11	248	0.00	29.657 
10:15	70.1	70.1	70.1	71	60.2	6	14	270	0.00	29.660 
10:20	70.4	70.4	70.4	71	60.5	5	13	270	0.00	29.660 
10:25	70.8	70.8	70.8	71	60.9	5	10	270	0.00	29.660 
10:30	70.6	70.6	70.6	70	60.3	4	10	270	0.00	29.651 
10:35	70.9	70.9	70.9	70	60.6	4	11	270	0.00	29.651 
10:40	70.9	70.9	70.9	71	61.0	5	12	270	0.00	29.651 
10:45	71.1	71.1	71.1	71	61.2	5	13	270	0.00	29.650 
10:50	71.6	71.6	71.6	70	61.3	3	7	270	0.00	29.650 
10:55	71.8	71.8	71.8	70	61.5	4	9	248	0.00	29.650 
11:00	72.1	72.1	72.1	70	61.8	4	10	270	0.00	29.653 
11:05	72.3	72.3	72.3	69	61.5	4	10	270	0.00	29.653 
11:10	72.7	72.7	72.7	68	61.5	5	11	270	0.00	29.653 
11:15	73.0	73.0	73.0	67	61.4	4	7	270	0.00	29.649 
11:20	73.3	73.3	73.3	68	62.1	3	7	248	0.00	29.649 
11:25	73.5	73.5	73.5	66	61.4	4	9	270	0.00	29.649 
11:30	73.9	73.9	73.9	67	62.2	4	10	270	0.00	29.646 
11:35	74.0	74.0	74.0	67	62.3	4	12	270	0.00	29.646 
11:40	74.4	74.4	74.4	65	61.8	4	7	270	0.00	29.646 
11:45	74.7	74.7	74.7	64	61.7	5	15	270	0.00	29.649 
11:50	74.7	74.7	74.7	64	61.7	6	11	270	0.00	29.649 
11:55	75.3	75.3	77.3	65	62.7	4	12	270	0.00	29.649 
12:00	75.8	75.8	77.7	65	63.2	5	13	270	0.00	29.647 
12:05	76.3	76.3	78.2	63	62.8	4	9	270	0.00	29.647 
12:10	76.8	76.8	78.6	62	62.8	4	9	248	0.00	29.647 
12:15	77.0	77.0	78.8	61	62.5	4	11	248	0.00	29.646 
12:20	77.0	77.0	78.8	62	63.0	5	11	248	0.00	29.646 
12:25	77.4	77.4	79.2	63	63.8	3	6	248	0.00	29.646 
12:30	77.9	77.9	79.5	58	61.9	4	10	270	0.00	29.653 
12:35	78.1	78.1	79.7	59	62.6	4	7	248	0.00	29.653 
12:40	78.3	78.3	80.0	61	63.7	3	6	270	0.00	29.653 
12:45	78.6	78.6	80.3	60	63.5	3	6	270	0.00	29.648 
12:50	78.8	78.8	80.2	56	61.8	4	10	270	0.00	29.648 
12:55	79.2	79.2	80.6	56	62.1	3	10	248	0.00	29.648 
13:00	79.2	79.2	80.9	60	64.1	2	6	315	0.00	29.650 
13:05	79.8	79.8	81.3	57	63.2	3	7	292	0.00	29.650 
13:10	79.6	79.6	80.9	55	62.0	3	6	248	0.00	29.650 
13:15	80.1	80.1	81.2	53	61.4	2	4	292	0.00	29.654 
13:20	80.7	80.7	81.7	52	61.4	2	5	315	0.00	29.654 
13:25	80.7	80.7	81.4	50	60.3	3	6	270	0.00	29.654 
13:30	80.7	80.7	81.4	50	60.3	2	5	270	0.00	29.643 
13:35	81.1	81.1	82.2	53	62.3	2	4	270	0.00	29.643 
13:40	80.9	80.9	81.4	48	59.3	2	5	338	0.00	29.643 
13:45	80.7	80.7	81.3	49	59.7	1	4	292	0.00	29.644 
13:50	80.7	80.7	81.3	49	59.7	1	4	292	0.00	29.644 
13:55	80.9	80.9	81.5	49	59.9	1	4	270	0.00	29.644 
14:00	81.2	81.2	81.3	45	57.8	1	4	315	0.00	29.640 
14:05	81.1	81.1	81.1	44	57.1	2	5	270	0.00	29.640 
14:10	81.1	81.1	81.5	47	58.9	2	4	315	0.00	29.640 
14:15	81.4	81.4	81.8	47	59.2	1	3	248	0.00	29.619 
14:20	81.4	81.4	81.4	44	57.4	1	4	22	0.00	29.619 
14:25	81.2	81.2	81.1	43	56.5	1	3	0	0.00	29.619 
14:30	80.9	80.9	81.2	46	58.2	1	3	292	0.00	29.625 
14:35	80.5	80.5	80.9	47	58.4	1	3	22	0.00	29.625 
14:40	79.9	79.9	80.4	46	57.2	0	3	338	0.00	29.625 
14:45	79.2	79.2	79.8	46	56.6	1	4	292	0.00	29.643 
14:50	78.8	78.8	79.6	46	56.2	0	5	292	0.00	29.643 
14:55	78.3	78.3	79.2	46	55.8	0	1	270	0.00	29.643 
15:00	77.9	77.9	79.0	47	56.0	1	3	292	0.00	29.647 
15:05	77.7	77.7	79.0	49	57.0	2	6	248	0.00	29.647 
15:10	77.7	77.7	79.3	57	61.2	5	11	248	0.00	29.647 
15:15	76.8	76.8	78.6	62	62.8	7	18	248	0.00	29.650 
15:20	76.0	76.0	77.9	64	62.9	4	9	270	0.00	29.650 
15:25	75.4	75.4	77.4	65	62.8	3	9	248	0.00	29.650 
15:30	75.3	75.3	77.3	65	62.7	3	7	248	0.00	29.645 
15:35	75.3	75.3	77.5	61	60.9	5	16	270	0.00	29.645 
15:40	75.1	75.1	77.2	64	62.1	6	14	248	0.00	29.645 
15:45	75.1	75.1	77.1	65	62.5	5	12	270	0.00	29.638 
15:50	75.4	75.4	77.4	65	62.8	4	11	248	0.00	29.638 
15:55	75.6	75.6	77.6	63	62.1	6	13	248	0.00	29.638 
16:00	75.6	75.6	77.6	64	62.5	4	10	248	0.00	29.637 
16:05	74.6	74.6	74.6	61	60.2	5	12	248	0.00	29.637 
16:10	73.9	73.9	73.9	60	59.1	4	13	270	0.00	29.637 
16:15	74.0	74.0	74.0	60	59.2	2	6	248	0.00	29.636 
16:20	74.2	74.2	74.2	59	58.9	2	6	248	0.00	29.636 
16:25	73.7	73.7	73.7	58	58.0	3	7	248	0.00	29.636 
16:30	73.3	73.3	73.3	62	59.5	1	4	338	0.00	29.621 
16:35	73.0	73.0	73.0	60	58.3	1	3	112	0.00	29.621 
16:40	72.8	72.8	72.8	57	56.7	1	2	112	0.00	29.621 
16:45	73.0	73.0	73.0	57	56.9	1	3	112	0.00	29.594 
16:50	73.2	73.2	73.2	54	55.5	0	2	225	0.00	29.594 
16:55	73.5	73.5	73.5	55	56.3	0	1	225	0.00	29.594 
17:00	73.7	73.7	73.7	55	56.5	0	2	225	0.00	29.600 
17:05	73.7	73.7	73.7	54	56.0	0	1	225	0.00	29.600 
17:10	74.0	74.0	74.0	56	57.3	0	1	225	0.00	29.600 
17:15	74.0	74.0	74.0	52	55.2	0	2	225	0.00	29.595 
17:20	73.9	73.9	73.9	54	56.2	1	4	225	0.00	29.595 
17:25	73.5	73.5	73.5	54	55.8	1	3	248	0.00	29.595 
17:30	73.2	73.2	73.2	55	56.0	1	4	248	0.00	29.581 
17:35	72.5	72.5	72.5	59	57.3	1	2	338	0.00	29.581 
17:40	72.0	72.0	72.0	60	57.3	1	5	292	0.00	29.581 
17:45	71.6	71.6	71.6	62	57.9	1	3	292	0.00	29.573 
17:50	71.1	71.1	71.1	62	57.4	2	4	248	0.00	29.573 
17:55	70.6	70.6	70.6	61	56.5	1	5	248	0.00	29.573 
18:00	70.3	70.3	70.3	60	55.7	1	3	248	0.00	29.569 
18:05	70.1	70.1	70.1	58	54.6	2	5	248	0.00	29.569 
18:10	69.9	69.9	69.9	58	54.4	2	6	248	0.00	29.569 
18:15	69.9	69.9	69.9	58	54.4	2	6	248	0.00	29.581 
18:20	69.8	69.8	69.8	58	54.3	2	5	202	0.00	29.581 
18:25	69.6	69.6	69.6	60	55.1	3	7	248	0.00	29.581 
18:30	69.4	69.4	69.4	62	55.8	2	7	248	0.00	29.576 
18:35	69.4	69.4	69.4	62	55.8	1	3	248	0.00	29.576 
18:40	69.6	69.6	69.6	62	56.0	2	6	248	0.00	29.576 
18:45	69.6	69.6	69.6	62	56.0	1	4	248	0.00	29.563 
18:50	69.6	69.6	69.6	62	56.0	1	4	248	0.00	29.563 
18:55	69.8	69.8	69.8	62	56.2	3	9	248	0.00	29.563 
19:00	69.9	69.9	69.9	63	56.7	2	6	248	0.00	29.562 
19:05	69.8	69.8	69.8	64	57.1	1	4	248	0.00	29.562 
19:10	69.6	69.6	69.6	63	56.4	2	4	270	0.00	29.562 
19:15	69.4	69.4	69.4	64	56.7	1	3	248	0.00	29.546 
19:20	69.3	69.3	69.3	63	56.2	1	4	248	0.00	29.546 
19:25	69.4	69.4	69.4	63	56.2	2	5	248	0.00	29.546 
19:30	69.6	69.6	69.6	62	56.0	3	6	248	0.00	29.556 
19:35	70.1	70.1	70.1	59	55.1	4	9	248	0.00	29.556 
19:40	70.6	70.6	70.6	57	54.6	4	9	270	0.00	29.556 
19:45	71.1	71.1	71.1	55	54.1	4	9	248	0.00	29.559 
19:50	71.1	71.1	71.1	55	54.1	5	10	248	0.00	29.559 
19:55	70.9	70.9	70.9	55	53.9	5	12	248	0.00	29.559 
20:00	70.6	70.6	70.6	56	54.1	4	9	248	0.00	29.543 
20:05	70.3	70.3	70.3	55	53.4	4	7	248	0.00	29.543 
20:10	69.9	69.9	69.9	55	53.0	3	9	248	0.00	29.543 
20:15	69.8	69.8	69.8	55	52.9	3	10	248	0.00	29.536 
20:20	69.4	69.4	69.4	55	52.5	3	6	248	0.00	29.536 
20:25	69.3	69.3	69.3	56	52.9	3	6	248	0.00	29.536 
20:30	68.9	68.9	68.9	56	52.5	2	4	248	0.00	29.544 
20:35	68.8	68.8	68.8	57	52.9	3	6	248	0.00	29.544 
20:40	68.6	68.6	68.6	58	53.2	2	5	248	0.00	29.544 
20:45	68.4	68.4	68.4	59	53.5	2	5	248	0.00	29.553 
20:50	68.3	68.3	68.3	60	53.9	3	6	248	0.00	29.553 
20:55	68.3	68.3	68.3	61	54.3	2	5	248	0.00	29.553 
21:00	68.3	68.3	68.3	62	54.8	3	6	248	0.00	29.551 
21:05	68.1	68.1	68.1	64	55.5	1	3	248	0.00	29.551 
21:10	67.8	67.8	67.8	65	55.6	1	3	248	0.00	29.551 
21:15	67.6	67.6	67.6	66	55.8	1	3	248	0.00	29.542 
21:20	67.4	67.4	67.4	67	56.1	1	3	248	0.00	29.542 
21:25	67.3	67.3	67.3	68	56.4	0	2	248	0.00	29.542 
21:30	66.9	66.9	66.9	69	56.4	0	1	248	0.00	29.540 
21:35	66.8	66.8	66.8	70	56.7	0	2	248	0.00	29.540 
21:40	66.3	66.3	66.3	72	57.0	0	1	248	0.00	29.540 
21:45	66.0	66.0	66.0	72	56.7	0	1	248	0.00	29.532 
21:50	65.5	65.5	65.5	73	56.6	0	0	---	0.00	29.532 
21:55	65.2	65.2	65.2	74	56.7	0	0	---	0.00	29.532 
22:00	65.0	65.0	65.0	75	56.9	0	0	---	0.00	29.545 
22:05	64.8	64.8	64.8	76	57.0	0	0	---	0.00	29.545 
22:10	65.0	65.0	65.0	77	57.6	0	0	---	0.00	29.545 
22:15	65.2	65.2	65.2	77	57.8	0	1	248	0.00	29.551 
22:20	65.5	65.5	65.5	77	58.1	0	2	248	0.00	29.551 
22:25	65.8	65.8	65.8	78	58.7	0	5	248	0.00	29.551 
22:30	66.3	66.3	66.3	79	59.6	2	5	270	0.00	29.534 
22:35	66.8	66.8	66.8	78	59.7	2	4	248	0.00	29.534 
22:40	66.9	66.9	66.9	78	59.8	1	3	248	0.00	29.534 
22:45	66.9	66.9	66.9	78	59.8	1	4	248	0.00	29.542 
22:50	66.8	66.8	66.8	78	59.7	2	4	248	0.00	29.542 
22:55	66.8	66.8	66.8	79	60.1	1	5	225	0.00	29.542 
23:00	66.6	66.6	66.6	79	59.9	1	3	270	0.00	29.538 
23:05	66.6	66.6	66.6	79	59.9	1	3	248	0.00	29.538 
23:10	66.4	66.4	66.4	79	59.7	2	5	248	0.00	29.538 
23:15	66.4	66.4	66.4	79	59.7	3	6	248	0.00	29.548 
23:20	66.4	66.4	66.4	79	59.7	4	8	248	0.00	29.548 
23:25	66.3	66.3	66.3	79	59.6	3	9	248	0.00	29.548 
23:30	66.1	66.1	66.1	77	58.7	4	7	248	0.00	29.536 
23:35	65.8	65.8	65.8	76	58.0	2	6	225	0.00	29.536 
23:40	65.6	65.6	65.6	74	57.1	2	5	248	0.00	29.536 
23:45	65.6	65.6	65.6	73	56.7	3	7	248	0.00	29.545 
23:50	65.5	65.5	65.5	73	56.6	4	11	248	0.00	29.545 
23:55	65.5	65.5	65.5	72	56.2	4	6	248	0.00	29.545 

CoCoRaHS
IN-AL-39
A2 Web Hosting
Creative Commons License
GoDaddy
Look for:

loaded 2017-12-12 01:56:50 • last modified 2010-11-18 10:43:29
Privacy PolicyDisclaimer
• wx.awcolley.com is powered by PmWiki v.2002016 •
• all content (unless otherwise noted) © 2017 A W Colley